Atalissa, Iowa
Current Conditions -  °F | °C
As of 6:15 PM on Friday 28 Nov 2014 (Local Time) from KMUT Reporting Station
Clear Clear  
Wind Chill: 30°   Ceiling: Unl
Heat Index: 36°   Visibility: 10mi
Dew Point: 30°   Wind: 7mph
Humidity: 81%   Direction: 140°SE
Pressure: 29.86"   Gusts: 13mph
Location:  41.57°N, 91.17°W
Report Text: KMUT 290015Z AUTO 14006G11KT 10SM CLR 02/M01 A2986 RMK AO2
Loading
Personal Weather Stations






























Interactive Weather Map New forecast layout! Learn more

10-Day Weather Forecast

Advertisements
Track Severe Weather on mobile